sensor_id;sensor_type;location;lat;lon;timestamp;P1;durP1;ratioP1;P2;durP2;ratioP2
83209;SDS011;73098;47.102;15.428;2024-03-25T00:01:55;3.93;;;3.53;;
83209;SDS011;73098;47.102;15.428;2024-03-25T00:04:21;4.20;;;3.80;;
83209;SDS011;73098;47.102;15.428;2024-03-25T00:06:47;4.53;;;4.13;;
83209;SDS011;73098;47.102;15.428;2024-03-25T00:09:12;6.50;;;4.90;;
83209;SDS011;73098;47.102;15.428;2024-03-25T00:11:38;5.80;;;4.00;;
83209;SDS011;73098;47.102;15.428;2024-03-25T00:14:03;6.03;;;4.20;;
83209;SDS011;73098;47.102;15.428;2024-03-25T00:16:29;5.37;;;4.87;;
83209;SDS011;73098;47.102;15.428;2024-03-25T00:18:54;4.93;;;4.33;;
83209;SDS011;73098;47.102;15.428;2024-03-25T00:21:20;5.10;;;4.40;;
83209;SDS011;73098;47.102;15.428;2024-03-25T00:23:46;4.93;;;4.50;;
83209;SDS011;73098;47.102;15.428;2024-03-25T00:26:11;5.13;;;4.47;;
83209;SDS011;73098;47.102;15.428;2024-03-25T00:28:37;4.60;;;4.00;;
83209;SDS011;73098;47.102;15.428;2024-03-25T00:31:02;4.30;;;3.90;;
83209;SDS011;73098;47.102;15.428;2024-03-25T00:33:28;3.70;;;3.40;;
83209;SDS011;73098;47.102;15.428;2024-03-25T00:35:54;6.87;;;4.70;;
83209;SDS011;73098;47.102;15.428;2024-03-25T00:38:19;3.50;;;3.20;;
83209;SDS011;73098;47.102;15.428;2024-03-25T00:40:45;5.10;;;4.33;;
83209;SDS011;73098;47.102;15.428;2024-03-25T00:43:10;4.50;;;3.57;;
83209;SDS011;73098;47.102;15.428;2024-03-25T00:45:36;4.70;;;4.23;;
83209;SDS011;73098;47.102;15.428;2024-03-25T00:48:02;4.67;;;4.17;;
83209;SDS011;73098;47.102;15.428;2024-03-25T00:50:28;4.23;;;3.83;;
83209;SDS011;73098;47.102;15.428;2024-03-25T00:52:53;4.83;;;4.40;;
83209;SDS011;73098;47.102;15.428;2024-03-25T00:55:19;6.43;;;3.80;;
83209;SDS011;73098;47.102;15.428;2024-03-25T00:57:45;5.10;;;4.33;;
83209;SDS011;73098;47.102;15.428;2024-03-25T01:00:10;5.60;;;4.37;;
83209;SDS011;73098;47.102;15.428;2024-03-25T01:02:36;4.33;;;3.93;;
83209;SDS011;73098;47.102;15.428;2024-03-25T01:05:02;4.47;;;4.07;;
83209;SDS011;73098;47.102;15.428;2024-03-25T01:07:29;3.90;;;3.53;;
83209;SDS011;73098;47.102;15.428;2024-03-25T01:09:54;4.67;;;3.83;;
83209;SDS011;73098;47.102;15.428;2024-03-25T01:12:20;9.83;;;4.37;;
83209;SDS011;73098;47.102;15.428;2024-03-25T01:14:45;4.07;;;3.67;;
83209;SDS011;73098;47.102;15.428;2024-03-25T01:17:11;3.80;;;3.40;;
83209;SDS011;73098;47.102;15.428;2024-03-25T01:19:37;4.17;;;3.60;;
83209;SDS011;73098;47.102;15.428;2024-03-25T01:22:02;4.13;;;3.83;;
83209;SDS011;73098;47.102;15.428;2024-03-25T01:24:28;3.43;;;3.13;;
83209;SDS011;73098;47.102;15.428;2024-03-25T01:26:54;4.03;;;3.73;;
83209;SDS011;73098;47.102;15.428;2024-03-25T01:29:19;5.47;;;4.50;;
83209;SDS011;73098;47.102;15.428;2024-03-25T01:31:45;4.13;;;3.83;;
83209;SDS011;73098;47.102;15.428;2024-03-25T01:34:10;3.83;;;3.50;;
83209;SDS011;73098;47.102;15.428;2024-03-25T01:36:36;5.40;;;3.70;;
83209;SDS011;73098;47.102;15.428;2024-03-25T01:39:02;5.17;;;4.27;;
83209;SDS011;73098;47.102;15.428;2024-03-25T01:41:27;4.03;;;3.70;;
83209;SDS011;73098;47.102;15.428;2024-03-25T01:43:53;4.03;;;3.70;;
83209;SDS011;73098;47.102;15.428;2024-03-25T01:46:19;4.13;;;3.72;;
83209;SDS011;73098;47.102;15.428;2024-03-25T01:48:46;4.30;;;3.87;;
83209;SDS011;73098;47.102;15.428;2024-03-25T01:51:11;4.33;;;3.90;;
83209;SDS011;73098;47.102;15.428;2024-03-25T01:53:38;4.10;;;3.47;;
83209;SDS011;73098;47.102;15.428;2024-03-25T01:56:04;3.53;;;3.23;;
83209;SDS011;73098;47.102;15.428;2024-03-25T01:58:30;4.00;;;3.40;;
83209;SDS011;73098;47.102;15.428;2024-03-25T02:00:56;4.67;;;3.80;;
83209;SDS011;73098;47.102;15.428;2024-03-25T02:03:22;4.03;;;3.67;;
83209;SDS011;73098;47.102;15.428;2024-03-25T02:05:49;4.33;;;4.00;;
83209;SDS011;73098;47.102;15.428;2024-03-25T02:08:16;3.87;;;3.30;;
83209;SDS011;73098;47.102;15.428;2024-03-25T02:10:42;3.17;;;2.97;;
83209;SDS011;73098;47.102;15.428;2024-03-25T02:13:08;3.57;;;3.00;;
83209;SDS011;73098;47.102;15.428;2024-03-25T02:15:35;3.57;;;3.30;;
83209;SDS011;73098;47.102;15.428;2024-03-25T02:18:00;3.47;;;3.17;;
83209;SDS011;73098;47.102;15.428;2024-03-25T02:20:26;3.90;;;3.00;;
83209;SDS011;73098;47.102;15.428;2024-03-25T02:22:51;3.70;;;3.40;;
83209;SDS011;73098;47.102;15.428;2024-03-25T02:25:17;4.23;;;3.30;;
83209;SDS011;73098;47.102;15.428;2024-03-25T02:27:43;3.70;;;3.03;;
83209;SDS011;73098;47.102;15.428;2024-03-25T02:30:09;3.50;;;3.20;;
83209;SDS011;73098;47.102;15.428;2024-03-25T02:32:35;3.33;;;3.10;;
83209;SDS011;73098;47.102;15.428;2024-03-25T02:35:05;3.93;;;3.00;;
83209;SDS011;73098;47.102;15.428;2024-03-25T02:37:32;3.40;;;2.80;;
83209;SDS011;73098;47.102;15.428;2024-03-25T02:39:59;3.50;;;2.93;;
83209;SDS011;73098;47.102;15.428;2024-03-25T02:42:26;2.70;;;2.50;;
83209;SDS011;73098;47.102;15.428;2024-03-25T02:44:53;3.13;;;2.53;;
83209;SDS011;73098;47.102;15.428;2024-03-25T02:47:19;3.03;;;2.83;;
83209;SDS011;73098;47.102;15.428;2024-03-25T02:49:45;4.07;;;2.87;;
83209;SDS011;73098;47.102;15.428;2024-03-25T02:52:11;3.87;;;3.20;;
83209;SDS011;73098;47.102;15.428;2024-03-25T02:54:37;4.17;;;3.70;;
83209;SDS011;73098;47.102;15.428;2024-03-25T02:57:02;3.43;;;3.13;;
83209;SDS011;73098;47.102;15.428;2024-03-25T02:59:28;3.17;;;2.97;;
83209;SDS011;73098;47.102;15.428;2024-03-25T03:01:54;3.70;;;3.40;;
83209;SDS011;73098;47.102;15.428;2024-03-25T03:04:19;3.30;;;3.00;;
83209;SDS011;73098;47.102;15.428;2024-03-25T03:06:45;3.03;;;2.73;;
83209;SDS011;73098;47.102;15.428;2024-03-25T03:09:11;3.27;;;2.97;;
83209;SDS011;73098;47.102;15.428;2024-03-25T03:11:36;4.70;;;3.63;;
83209;SDS011;73098;47.102;15.428;2024-03-25T03:14:02;3.70;;;3.40;;
83209;SDS011;73098;47.102;15.428;2024-03-25T03:16:28;3.57;;;3.27;;
83209;SDS011;73098;47.102;15.428;2024-03-25T03:18:53;4.73;;;3.60;;
83209;SDS011;73098;47.102;15.428;2024-03-25T03:21:19;4.17;;;3.37;;
83209;SDS011;73098;47.102;15.428;2024-03-25T03:23:44;3.03;;;2.80;;
83209;SDS011;73098;47.102;15.428;2024-03-25T03:26:10;3.40;;;3.10;;
83209;SDS011;73098;47.102;15.428;2024-03-25T03:28:35;4.50;;;3.23;;
83209;SDS011;73098;47.102;15.428;2024-03-25T03:31:01;3.00;;;2.80;;
83209;SDS011;73098;47.102;15.428;2024-03-25T03:33:27;3.20;;;3.00;;
83209;SDS011;73098;47.102;15.428;2024-03-25T03:35:52;3.57;;;3.27;;
83209;SDS011;73098;47.102;15.428;2024-03-25T03:38:18;3.10;;;2.77;;
83209;SDS011;73098;47.102;15.428;2024-03-25T03:40:46;4.07;;;3.67;;
83209;SDS011;73098;47.102;15.428;2024-03-25T03:43:21;2.97;;;2.53;;
83209;SDS011;73098;47.102;15.428;2024-03-25T03:45:47;3.57;;;2.17;;
83209;SDS011;73098;47.102;15.428;2024-03-25T03:48:12;2.80;;;2.60;;
83209;SDS011;73098;47.102;15.428;2024-03-25T03:50:38;3.37;;;3.00;;
83209;SDS011;73098;47.102;15.428;2024-03-25T03:53:03;2.23;;;2.07;;
83209;SDS011;73098;47.102;15.428;2024-03-25T03:55:29;1.90;;;1.70;;
83209;SDS011;73098;47.102;15.428;2024-03-25T03:57:55;2.37;;;2.17;;
83209;SDS011;73098;47.102;15.428;2024-03-25T04:00:20;2.70;;;2.50;;
83209;SDS011;73098;47.102;15.428;2024-03-25T04:02:46;2.43;;;2.23;;
83209;SDS011;73098;47.102;15.428;2024-03-25T04:05:12;1.77;;;1.67;;
83209;SDS011;73098;47.102;15.428;2024-03-25T04:07:37;2.00;;;1.90;;
83209;SDS011;73098;47.102;15.428;2024-03-25T04:10:03;2.10;;;1.80;;
83209;SDS011;73098;47.102;15.428;2024-03-25T04:12:29;1.90;;;1.80;;
83209;SDS011;73098;47.102;15.428;2024-03-25T04:14:54;4.63;;;2.33;;
83209;SDS011;73098;47.102;15.428;2024-03-25T04:17:20;2.23;;;2.03;;
83209;SDS011;73098;47.102;15.428;2024-03-25T04:19:47;2.30;;;1.87;;
83209;SDS011;73098;47.102;15.428;2024-03-25T04:22:13;2.50;;;1.70;;
83209;SDS011;73098;47.102;15.428;2024-03-25T04:24:39;4.77;;;1.77;;
83209;SDS011;73098;47.102;15.428;2024-03-25T04:27:05;2.63;;;1.70;;
83209;SDS011;73098;47.102;15.428;2024-03-25T04:29:30;1.93;;;1.80;;
83209;SDS011;73098;47.102;15.428;2024-03-25T04:31:56;1.60;;;1.50;;
83209;SDS011;73098;47.102;15.428;2024-03-25T04:34:22;1.67;;;1.57;;
83209;SDS011;73098;47.102;15.428;2024-03-25T04:36:47;1.83;;;1.70;;
83209;SDS011;73098;47.102;15.428;2024-03-25T04:39:13;2.63;;;2.07;;
83209;SDS011;73098;47.102;15.428;2024-03-25T04:41:38;1.73;;;1.60;;
83209;SDS011;73098;47.102;15.428;2024-03-25T04:44:04;3.90;;;1.97;;
83209;SDS011;73098;47.102;15.428;2024-03-25T04:46:29;2.20;;;2.00;;
83209;SDS011;73098;47.102;15.428;2024-03-25T04:48:55;3.27;;;2.03;;
83209;SDS011;73098;47.102;15.428;2024-03-25T04:51:21;3.70;;;2.27;;
83209;SDS011;73098;47.102;15.428;2024-03-25T04:53:46;1.70;;;1.23;;
83209;SDS011;73098;47.102;15.428;2024-03-25T04:56:12;3.70;;;1.70;;
83209;SDS011;73098;47.102;15.428;2024-03-25T04:58:38;1.30;;;1.20;;
83209;SDS011;73098;47.102;15.428;2024-03-25T05:01:04;2.13;;;1.93;;
83209;SDS011;73098;47.102;15.428;2024-03-25T05:03:29;2.10;;;1.67;;
83209;SDS011;73098;47.102;15.428;2024-03-25T05:05:55;1.93;;;1.73;;
83209;SDS011;73098;47.102;15.428;2024-03-25T05:08:20;1.97;;;1.80;;
83209;SDS011;73098;47.102;15.428;2024-03-25T05:10:46;1.60;;;1.50;;
83209;SDS011;73098;47.102;15.428;2024-03-25T05:13:12;1.80;;;1.70;;
83209;SDS011;73098;47.102;15.428;2024-03-25T05:15:37;1.43;;;1.30;;
83209;SDS011;73098;47.102;15.428;2024-03-25T05:18:03;1.73;;;1.63;;
83209;SDS011;73098;47.102;15.428;2024-03-25T05:20:29;2.37;;;1.50;;
83209;SDS011;73098;47.102;15.428;2024-03-25T05:22:54;1.50;;;1.40;;
83209;SDS011;73098;47.102;15.428;2024-03-25T05:25:20;1.63;;;1.53;;
83209;SDS011;73098;47.102;15.428;2024-03-25T05:27:45;1.50;;;1.40;;
83209;SDS011;73098;47.102;15.428;2024-03-25T05:30:11;1.13;;;1.13;;
83209;SDS011;73098;47.102;15.428;2024-03-25T05:32:37;3.77;;;1.90;;
83209;SDS011;73098;47.102;15.428;2024-03-25T05:35:02;1.63;;;1.53;;
83209;SDS011;73098;47.102;15.428;2024-03-25T05:37:28;3.00;;;1.60;;
83209;SDS011;73098;47.102;15.428;2024-03-25T05:39:54;2.80;;;1.87;;
83209;SDS011;73098;47.102;15.428;2024-03-25T05:42:20;1.87;;;1.70;;
83209;SDS011;73098;47.102;15.428;2024-03-25T05:44:45;1.87;;;1.70;;
83209;SDS011;73098;47.102;15.428;2024-03-25T05:47:11;2.00;;;1.60;;
83209;SDS011;73098;47.102;15.428;2024-03-25T05:49:36;1.70;;;1.60;;
83209;SDS011;73098;47.102;15.428;2024-03-25T05:52:02;2.63;;;2.23;;
83209;SDS011;73098;47.102;15.428;2024-03-25T05:54:28;3.80;;;1.90;;
83209;SDS011;73098;47.102;15.428;2024-03-25T05:56:53;2.93;;;2.20;;
83209;SDS011;73098;47.102;15.428;2024-03-25T05:59:19;2.83;;;2.63;;
83209;SDS011;73098;47.102;15.428;2024-03-25T06:01:44;2.40;;;2.07;;
83209;SDS011;73098;47.102;15.428;2024-03-25T06:04:10;3.27;;;2.97;;
83209;SDS011;73098;47.102;15.428;2024-03-25T06:06:35;2.40;;;2.20;;
83209;SDS011;73098;47.102;15.428;2024-03-25T06:09:01;1.83;;;1.73;;
83209;SDS011;73098;47.102;15.428;2024-03-25T06:11:27;2.93;;;1.80;;
83209;SDS011;73098;47.102;15.428;2024-03-25T06:13:52;3.57;;;3.10;;
83209;SDS011;73098;47.102;15.428;2024-03-25T06:16:18;3.03;;;2.47;;
83209;SDS011;73098;47.102;15.428;2024-03-25T06:18:43;3.23;;;2.80;;
83209;SDS011;73098;47.102;15.428;2024-03-25T06:21:09;3.40;;;3.10;;
83209;SDS011;73098;47.102;15.428;2024-03-25T06:23:34;3.87;;;2.80;;
83209;SDS011;73098;47.102;15.428;2024-03-25T06:26:00;2.53;;;2.33;;
83209;SDS011;73098;47.102;15.428;2024-03-25T06:28:26;6.87;;;3.20;;
83209;SDS011;73098;47.102;15.428;2024-03-25T06:30:51;3.07;;;2.67;;
83209;SDS011;73098;47.102;15.428;2024-03-25T06:33:17;2.10;;;1.90;;
83209;SDS011;73098;47.102;15.428;2024-03-25T06:35:43;2.10;;;1.90;;
83209;SDS011;73098;47.102;15.428;2024-03-25T06:38:09;2.27;;;2.07;;
83209;SDS011;73098;47.102;15.428;2024-03-25T06:40:35;2.67;;;2.40;;
83209;SDS011;73098;47.102;15.428;2024-03-25T06:43:01;2.10;;;1.90;;
83209;SDS011;73098;47.102;15.428;2024-03-25T06:45:27;3.50;;;2.20;;
83209;SDS011;73098;47.102;15.428;2024-03-25T06:47:52;4.00;;;2.23;;
83209;SDS011;73098;47.102;15.428;2024-03-25T06:50:18;2.57;;;2.10;;
83209;SDS011;73098;47.102;15.428;2024-03-25T06:52:43;1.63;;;1.50;;
83209;SDS011;73098;47.102;15.428;2024-03-25T06:55:09;2.70;;;2.03;;
83209;SDS011;73098;47.102;15.428;2024-03-25T06:57:35;2.70;;;2.50;;
83209;SDS011;73098;47.102;15.428;2024-03-25T07:00:00;6.03;;;1.93;;
83209;SDS011;73098;47.102;15.428;2024-03-25T07:02:26;3.00;;;2.70;;
83209;SDS011;73098;47.102;15.428;2024-03-25T07:04:52;4.23;;;2.43;;
83209;SDS011;73098;47.102;15.428;2024-03-25T07:07:17;3.07;;;2.60;;
83209;SDS011;73098;47.102;15.428;2024-03-25T07:09:43;3.27;;;2.97;;
83209;SDS011;73098;47.102;15.428;2024-03-25T07:12:08;4.60;;;2.63;;
83209;SDS011;73098;47.102;15.428;2024-03-25T07:14:34;2.67;;;2.47;;
83209;SDS011;73098;47.102;15.428;2024-03-25T07:17:00;4.17;;;2.47;;
83209;SDS011;73098;47.102;15.428;2024-03-25T07:19:25;2.93;;;2.63;;
83209;SDS011;73098;47.102;15.428;2024-03-25T07:21:51;2.83;;;2.20;;
83209;SDS011;73098;47.102;15.428;2024-03-25T07:24:17;2.23;;;2.03;;
83209;SDS011;73098;47.102;15.428;2024-03-25T07:26:42;4.27;;;2.90;;
83209;SDS011;73098;47.102;15.428;2024-03-25T07:29:08;2.37;;;2.10;;
83209;SDS011;73098;47.102;15.428;2024-03-25T07:31:34;5.37;;;2.50;;
83209;SDS011;73098;47.102;15.428;2024-03-25T07:33:59;5.77;;;3.00;;
83209;SDS011;73098;47.102;15.428;2024-03-25T07:36:25;2.30;;;2.10;;
83209;SDS011;73098;47.102;15.428;2024-03-25T07:38:50;2.33;;;1.90;;
83209;SDS011;73098;47.102;15.428;2024-03-25T07:41:16;2.33;;;2.10;;
83209;SDS011;73098;47.102;15.428;2024-03-25T07:43:42;1.83;;;1.73;;
83209;SDS011;73098;47.102;15.428;2024-03-25T07:46:07;1.93;;;1.83;;
83209;SDS011;73098;47.102;15.428;2024-03-25T07:48:33;3.90;;;2.23;;
83209;SDS011;73098;47.102;15.428;2024-03-25T07:50:58;2.40;;;1.90;;
83209;SDS011;73098;47.102;15.428;2024-03-25T07:53:24;2.70;;;1.77;;
83209;SDS011;73098;47.102;15.428;2024-03-25T07:55:49;2.73;;;1.77;;
83209;SDS011;73098;47.102;15.428;2024-03-25T07:58:15;2.10;;;2.00;;
83209;SDS011;73098;47.102;15.428;2024-03-25T08:00:41;1.70;;;1.50;;
83209;SDS011;73098;47.102;15.428;2024-03-25T08:03:06;2.30;;;1.90;;
83209;SDS011;73098;47.102;15.428;2024-03-25T08:05:32;1.47;;;1.37;;
83209;SDS011;73098;47.102;15.428;2024-03-25T08:07:58;2.47;;;2.27;;
83209;SDS011;73098;47.102;15.428;2024-03-25T08:10:23;1.80;;;1.70;;
83209;SDS011;73098;47.102;15.428;2024-03-25T08:12:49;2.40;;;2.20;;
83209;SDS011;73098;47.102;15.428;2024-03-25T08:15:15;2.13;;;1.93;;
83209;SDS011;73098;47.102;15.428;2024-03-25T08:17:40;4.30;;;2.50;;
83209;SDS011;73098;47.102;15.428;2024-03-25T08:20:06;3.90;;;2.83;;
83209;SDS011;73098;47.102;15.428;2024-03-25T08:22:32;4.00;;;3.47;;
83209;SDS011;73098;47.102;15.428;2024-03-25T08:24:57;6.73;;;3.60;;
83209;SDS011;73098;47.102;15.428;2024-03-25T08:27:23;5.77;;;3.90;;
83209;SDS011;73098;47.102;15.428;2024-03-25T08:29:49;3.60;;;2.57;;
83209;SDS011;73098;47.102;15.428;2024-03-25T08:32:14;3.53;;;3.03;;
83209;SDS011;73098;47.102;15.428;2024-03-25T08:34:40;2.97;;;2.57;;
83209;SDS011;73098;47.102;15.428;2024-03-25T08:37:05;3.77;;;2.60;;
83209;SDS011;73098;47.102;15.428;2024-03-25T08:39:31;3.27;;;2.97;;
83209;SDS011;73098;47.102;15.428;2024-03-25T08:41:57;4.30;;;2.40;;
83209;SDS011;73098;47.102;15.428;2024-03-25T08:44:22;5.80;;;2.70;;
83209;SDS011;73098;47.102;15.428;2024-03-25T08:46:48;4.23;;;2.30;;
83209;SDS011;73098;47.102;15.428;2024-03-25T08:49:14;1.90;;;1.80;;
83209;SDS011;73098;47.102;15.428;2024-03-25T08:51:39;3.23;;;2.37;;
83209;SDS011;73098;47.102;15.428;2024-03-25T08:54:05;3.47;;;2.60;;
83209;SDS011;73098;47.102;15.428;2024-03-25T08:56:31;1.80;;;1.70;;
83209;SDS011;73098;47.102;15.428;2024-03-25T08:58:56;1.33;;;1.20;;
83209;SDS011;73098;47.102;15.428;2024-03-25T09:01:22;2.40;;;1.87;;
83209;SDS011;73098;47.102;15.428;2024-03-25T09:03:48;1.67;;;1.57;;
83209;SDS011;73098;47.102;15.428;2024-03-25T09:06:13;1.20;;;1.10;;
83209;SDS011;73098;47.102;15.428;2024-03-25T09:08:39;1.57;;;1.47;;
83209;SDS011;73098;47.102;15.428;2024-03-25T09:11:05;2.03;;;1.80;;
83209;SDS011;73098;47.102;15.428;2024-03-25T09:13:30;4.53;;;2.23;;
83209;SDS011;73098;47.102;15.428;2024-03-25T09:15:56;2.63;;;2.43;;
83209;SDS011;73098;47.102;15.428;2024-03-25T09:18:22;2.40;;;2.20;;
83209;SDS011;73098;47.102;15.428;2024-03-25T09:20:48;1.77;;;1.67;;
83209;SDS011;73098;47.102;15.428;2024-03-25T09:23:13;1.93;;;1.40;;
83209;SDS011;73098;47.102;15.428;2024-03-25T09:25:39;1.83;;;1.67;;
83209;SDS011;73098;47.102;15.428;2024-03-25T09:28:05;1.50;;;1.40;;
83209;SDS011;73098;47.102;15.428;2024-03-25T09:30:31;1.43;;;1.13;;
83209;SDS011;73098;47.102;15.428;2024-03-25T09:32:57;1.60;;;1.50;;
83209;SDS011;73098;47.102;15.428;2024-03-25T09:35:22;1.93;;;1.70;;
83209;SDS011;73098;47.102;15.428;2024-03-25T09:37:48;2.23;;;2.13;;
83209;SDS011;73098;47.102;15.428;2024-03-25T09:40:14;1.20;;;1.10;;
83209;SDS011;73098;47.102;15.428;2024-03-25T09:45:18;1.10;;;1.03;;
83209;SDS011;73098;47.102;15.428;2024-03-25T09:47:47;1.27;;;1.27;;
83209;SDS011;73098;47.102;15.428;2024-03-25T09:50:15;1.53;;;1.43;;
83209;SDS011;73098;47.102;15.428;2024-03-25T09:52:41;1.57;;;1.47;;
83209;SDS011;73098;47.102;15.428;2024-03-25T09:55:07;1.73;;;1.63;;
83209;SDS011;73098;47.102;15.428;2024-03-25T09:57:33;2.00;;;1.43;;
83209;SDS011;73098;47.102;15.428;2024-03-25T09:59:59;1.53;;;1.43;;
83209;SDS011;73098;47.102;15.428;2024-03-25T10:02:28;1.50;;;1.40;;
83209;SDS011;73098;47.102;15.428;2024-03-25T10:04:54;0.90;;;0.90;;
83209;SDS011;73098;47.102;15.428;2024-03-25T10:07:24;2.10;;;1.27;;
83209;SDS011;73098;47.102;15.428;2024-03-25T10:09:50;1.93;;;1.80;;
83209;SDS011;73098;47.102;15.428;2024-03-25T10:12:16;2.00;;;1.40;;
83209;SDS011;73098;47.102;15.428;2024-03-25T10:14:42;1.50;;;1.40;;
83209;SDS011;73098;47.102;15.428;2024-03-25T10:17:08;1.43;;;1.30;;
83209;SDS011;73098;47.102;15.428;2024-03-25T10:19:33;1.33;;;1.23;;
83209;SDS011;73098;47.102;15.428;2024-03-25T10:22:03;1.23;;;1.10;;
83209;SDS011;73098;47.102;15.428;2024-03-25T10:24:42;1.37;;;1.27;;
83209;SDS011;73098;47.102;15.428;2024-03-25T10:27:17;1.20;;;1.10;;
83209;SDS011;73098;47.102;15.428;2024-03-25T10:29:43;1.33;;;1.20;;
83209;SDS011;73098;47.102;15.428;2024-03-25T10:32:08;1.27;;;1.17;;
83209;SDS011;73098;47.102;15.428;2024-03-25T10:34:34;0.90;;;0.90;;
83209;SDS011;73098;47.102;15.428;2024-03-25T10:37:01;0.70;;;0.60;;
83209;SDS011;73098;47.102;15.428;2024-03-25T10:39:27;2.53;;;0.90;;
83209;SDS011;73098;47.102;15.428;2024-03-25T10:41:57;1.13;;;1.03;;
83209;SDS011;73098;47.102;15.428;2024-03-25T10:44:26;1.10;;;0.93;;
83209;SDS011;73098;47.102;15.428;2024-03-25T10:47:01;0.70;;;0.70;;
83209;SDS011;73098;47.102;15.428;2024-03-25T10:49:37;0.60;;;0.60;;
83209;SDS011;73098;47.102;15.428;2024-03-25T10:52:06;0.70;;;0.63;;
83209;SDS011;73098;47.102;15.428;2024-03-25T10:54:33;0.80;;;0.70;;
83209;SDS011;73098;47.102;15.428;2024-03-25T10:56:58;0.70;;;0.70;;
83209;SDS011;73098;47.102;15.428;2024-03-25T10:59:26;0.63;;;0.60;;
83209;SDS011;73098;47.102;15.428;2024-03-25T11:01:53;0.77;;;0.77;;
83209;SDS011;73098;47.102;15.428;2024-03-25T11:04:20;1.43;;;0.63;;
83209;SDS011;73098;47.102;15.428;2024-03-25T11:06:46;1.07;;;0.50;;
83209;SDS011;73098;47.102;15.428;2024-03-25T11:09:21;0.50;;;0.50;;
83209;SDS011;73098;47.102;15.428;2024-03-25T11:11:47;0.80;;;0.60;;
83209;SDS011;73098;47.102;15.428;2024-03-25T11:14:16;1.03;;;0.50;;
83209;SDS011;73098;47.102;15.428;2024-03-25T11:16:41;0.60;;;0.60;;
83209;SDS011;73098;47.102;15.428;2024-03-25T11:19:10;0.77;;;0.60;;
83209;SDS011;73098;47.102;15.428;2024-03-25T11:21:36;0.70;;;0.63;;
83209;SDS011;73098;47.102;15.428;2024-03-25T11:24:08;0.80;;;0.60;;
83209;SDS011;73098;47.102;15.428;2024-03-25T11:26:33;0.67;;;0.67;;
83209;SDS011;73098;47.102;15.428;2024-03-25T11:28:59;0.70;;;0.70;;
83209;SDS011;73098;47.102;15.428;2024-03-25T11:31:25;1.13;;;0.53;;
83209;SDS011;73098;47.102;15.428;2024-03-25T11:33:52;1.00;;;0.67;;
83209;SDS011;73098;47.102;15.428;2024-03-25T11:36:18;1.23;;;0.80;;
83209;SDS011;73098;47.102;15.428;2024-03-25T11:38:44;0.80;;;0.80;;
83209;SDS011;73098;47.102;15.428;2024-03-25T11:41:10;0.70;;;0.70;;
83209;SDS011;73098;47.102;15.428;2024-03-25T11:43:36;0.77;;;0.77;;
83209;SDS011;73098;47.102;15.428;2024-03-25T11:46:02;2.50;;;0.73;;
83209;SDS011;73098;47.102;15.428;2024-03-25T11:48:28;0.80;;;0.73;;
83209;SDS011;73098;47.102;15.428;2024-03-25T11:50:54;0.90;;;0.73;;
83209;SDS011;73098;47.102;15.428;2024-03-25T11:53:20;0.80;;;0.80;;
83209;SDS011;73098;47.102;15.428;2024-03-25T11:55:46;0.60;;;0.60;;
83209;SDS011;73098;47.102;15.428;2024-03-25T11:58:12;1.00;;;0.73;;
83209;SDS011;73098;47.102;15.428;2024-03-25T12:00:47;0.60;;;0.60;;
83209;SDS011;73098;47.102;15.428;2024-03-25T12:03:13;1.27;;;0.97;;
83209;SDS011;73098;47.102;15.428;2024-03-25T12:05:39;0.80;;;0.77;;
83209;SDS011;73098;47.102;15.428;2024-03-25T12:08:07;0.87;;;0.87;;
83209;SDS011;73098;47.102;15.428;2024-03-25T12:10:34;1.63;;;0.70;;
83209;SDS011;73098;47.102;15.428;2024-03-25T12:12:59;0.80;;;0.80;;
83209;SDS011;73098;47.102;15.428;2024-03-25T12:15:25;0.77;;;0.77;;
83209;SDS011;73098;47.102;15.428;2024-03-25T12:17:51;0.87;;;0.87;;
83209;SDS011;73098;47.102;15.428;2024-03-25T12:20:16;1.03;;;0.87;;
83209;SDS011;73098;47.102;15.428;2024-03-25T12:22:42;0.70;;;0.70;;
83209;SDS011;73098;47.102;15.428;2024-03-25T12:25:08;0.70;;;0.70;;
83209;SDS011;73098;47.102;15.428;2024-03-25T12:27:35;0.70;;;0.70;;
83209;SDS011;73098;47.102;15.428;2024-03-25T12:32:32;0.60;;;0.60;;
83209;SDS011;73098;47.102;15.428;2024-03-25T12:35:00;6.80;;;0.93;;
83209;SDS011;73098;47.102;15.428;2024-03-25T12:37:26;0.90;;;0.90;;
83209;SDS011;73098;47.102;15.428;2024-03-25T12:39:52;0.90;;;0.90;;
83209;SDS011;73098;47.102;15.428;2024-03-25T12:42:18;1.07;;;1.07;;
83209;SDS011;73098;47.102;15.428;2024-03-25T12:44:44;1.50;;;1.30;;
83209;SDS011;73098;47.102;15.428;2024-03-25T12:47:10;0.80;;;0.80;;
83209;SDS011;73098;47.102;15.428;2024-03-25T12:49:35;1.20;;;1.10;;
83209;SDS011;73098;47.102;15.428;2024-03-25T12:52:04;1.00;;;1.00;;
83209;SDS011;73098;47.102;15.428;2024-03-25T12:54:31;1.00;;;1.00;;
83209;SDS011;73098;47.102;15.428;2024-03-25T12:56:57;0.93;;;0.93;;
83209;SDS011;73098;47.102;15.428;2024-03-25T12:59:23;0.90;;;0.90;;
83209;SDS011;73098;47.102;15.428;2024-03-25T13:01:48;1.03;;;1.00;;
83209;SDS011;73098;47.102;15.428;2024-03-25T13:04:14;1.10;;;1.10;;
83209;SDS011;73098;47.102;15.428;2024-03-25T13:06:39;1.20;;;1.10;;
83209;SDS011;73098;47.102;15.428;2024-03-25T13:09:05;1.40;;;1.30;;
83209;SDS011;73098;47.102;15.428;2024-03-25T13:11:31;1.27;;;1.17;;
83209;SDS011;73098;47.102;15.428;2024-03-25T13:13:56;1.40;;;1.30;;
83209;SDS011;73098;47.102;15.428;2024-03-25T13:16:22;1.20;;;1.10;;
83209;SDS011;73098;47.102;15.428;2024-03-25T13:18:48;1.30;;;0.90;;
83209;SDS011;73098;47.102;15.428;2024-03-25T13:21:13;1.00;;;1.00;;
83209;SDS011;73098;47.102;15.428;2024-03-25T13:23:39;1.07;;;1.00;;
83209;SDS011;73098;47.102;15.428;2024-03-25T13:26:04;1.10;;;1.10;;
83209;SDS011;73098;47.102;15.428;2024-03-25T13:28:30;1.77;;;1.03;;
83209;SDS011;73098;47.102;15.428;2024-03-25T13:30:56;1.00;;;1.00;;
83209;SDS011;73098;47.102;15.428;2024-03-25T13:33:21;3.27;;;1.20;;
83209;SDS011;73098;47.102;15.428;2024-03-25T13:35:47;0.97;;;0.97;;
83209;SDS011;73098;47.102;15.428;2024-03-25T13:38:13;1.43;;;1.40;;
83209;SDS011;73098;47.102;15.428;2024-03-25T13:40:38;1.47;;;1.37;;
83209;SDS011;73098;47.102;15.428;2024-03-25T13:43:05;1.27;;;1.17;;
83209;SDS011;73098;47.102;15.428;2024-03-25T13:45:30;1.30;;;1.20;;
83209;SDS011;73098;47.102;15.428;2024-03-25T13:47:56;1.77;;;1.07;;
83209;SDS011;73098;47.102;15.428;2024-03-25T13:50:22;1.77;;;1.20;;
83209;SDS011;73098;47.102;15.428;2024-03-25T13:52:47;1.20;;;1.10;;
83209;SDS011;73098;47.102;15.428;2024-03-25T13:55:13;1.30;;;1.17;;
83209;SDS011;73098;47.102;15.428;2024-03-25T13:57:39;0.80;;;0.80;;
83209;SDS011;73098;47.102;15.428;2024-03-25T14:00:05;1.10;;;1.00;;
83209;SDS011;73098;47.102;15.428;2024-03-25T14:02:31;1.13;;;0.83;;
83209;SDS011;73098;47.102;15.428;2024-03-25T14:04:56;1.03;;;1.00;;
83209;SDS011;73098;47.102;15.428;2024-03-25T14:07:22;1.00;;;1.00;;
83209;SDS011;73098;47.102;15.428;2024-03-25T14:09:48;1.13;;;1.03;;
83209;SDS011;73098;47.102;15.428;2024-03-25T14:12:13;1.63;;;1.10;;
83209;SDS011;73098;47.102;15.428;2024-03-25T14:14:39;1.67;;;1.00;;
83209;SDS011;73098;47.102;15.428;2024-03-25T14:17:05;1.13;;;0.87;;
83209;SDS011;73098;47.102;15.428;2024-03-25T14:19:30;1.10;;;1.10;;
83209;SDS011;73098;47.102;15.428;2024-03-25T14:21:56;0.90;;;0.90;;
83209;SDS011;73098;47.102;15.428;2024-03-25T14:24:21;1.03;;;0.93;;
83209;SDS011;73098;47.102;15.428;2024-03-25T14:26:47;3.33;;;1.03;;
83209;SDS011;73098;47.102;15.428;2024-03-25T14:29:13;1.87;;;1.10;;
83209;SDS011;73098;47.102;15.428;2024-03-25T14:31:38;1.63;;;1.17;;